sensor_id;sensor_type;location;lat;lon;timestamp;temperature;humidity
8662;DHT22;29684;47.722;9.388;2024-03-25T00:01:56;3.40;99.90
8662;DHT22;29684;47.722;9.388;2024-03-25T00:04:40;3.40;99.90
8662;DHT22;29684;47.722;9.388;2024-03-25T00:07:25;3.50;99.90
8662;DHT22;29684;47.722;9.388;2024-03-25T00:10:09;3.50;99.90
8662;DHT22;29684;47.722;9.388;2024-03-25T00:12:53;3.50;99.90
8662;DHT22;29684;47.722;9.388;2024-03-25T00:15:40;3.60;99.90
8662;DHT22;29684;47.722;9.388;2024-03-25T00:18:24;3.60;99.90
8662;DHT22;29684;47.722;9.388;2024-03-25T00:21:08;4.30;99.90
8662;DHT22;29684;47.722;9.388;2024-03-25T00:23:52;3.60;99.90
8662;DHT22;29684;47.722;9.388;2024-03-25T00:26:36;3.60;99.90
8662;DHT22;29684;47.722;9.388;2024-03-25T00:29:20;3.60;99.90
8662;DHT22;29684;47.722;9.388;2024-03-25T00:32:04;3.60;99.90
8662;DHT22;29684;47.722;9.388;2024-03-25T00:34:49;3.60;99.90
8662;DHT22;29684;47.722;9.388;2024-03-25T00:37:34;3.60;99.90
8662;DHT22;29684;47.722;9.388;2024-03-25T00:40:17;3.70;99.90
8662;DHT22;29684;47.722;9.388;2024-03-25T00:43:02;3.70;99.90
8662;DHT22;29684;47.722;9.388;2024-03-25T00:45:46;3.70;99.90
8662;DHT22;29684;47.722;9.388;2024-03-25T00:48:30;3.70;99.90
8662;DHT22;29684;47.722;9.388;2024-03-25T00:51:14;3.80;99.90
8662;DHT22;29684;47.722;9.388;2024-03-25T00:53:59;3.80;99.90
8662;DHT22;29684;47.722;9.388;2024-03-25T00:56:43;3.80;99.90
8662;DHT22;29684;47.722;9.388;2024-03-25T00:59:28;3.70;99.90
8662;DHT22;29684;47.722;9.388;2024-03-25T01:02:12;3.70;99.90
8662;DHT22;29684;47.722;9.388;2024-03-25T01:04:56;3.80;99.90
8662;DHT22;29684;47.722;9.388;2024-03-25T01:07:41;3.80;99.90
8662;DHT22;29684;47.722;9.388;2024-03-25T01:10:26;3.80;99.90
8662;DHT22;29684;47.722;9.388;2024-03-25T01:13:10;3.80;99.90
8662;DHT22;29684;47.722;9.388;2024-03-25T01:15:54;3.70;99.90
8662;DHT22;29684;47.722;9.388;2024-03-25T01:18:38;3.70;99.90
8662;DHT22;29684;47.722;9.388;2024-03-25T01:21:22;3.70;99.90
8662;DHT22;29684;47.722;9.388;2024-03-25T01:24:06;3.70;99.90
8662;DHT22;29684;47.722;9.388;2024-03-25T01:26:50;3.80;99.90
8662;DHT22;29684;47.722;9.388;2024-03-25T01:29:35;3.70;99.90
8662;DHT22;29684;47.722;9.388;2024-03-25T01:32:19;3.60;99.90
8662;DHT22;29684;47.722;9.388;2024-03-25T01:35:04;3.60;99.90
8662;DHT22;29684;47.722;9.388;2024-03-25T01:37:49;3.60;99.90
8662;DHT22;29684;47.722;9.388;2024-03-25T01:40:34;3.50;99.90
8662;DHT22;29684;47.722;9.388;2024-03-25T01:43:18;3.60;99.90
8662;DHT22;29684;47.722;9.388;2024-03-25T01:46:02;3.60;99.90
8662;DHT22;29684;47.722;9.388;2024-03-25T01:48:47;3.60;99.90
8662;DHT22;29684;47.722;9.388;2024-03-25T01:51:33;3.60;99.90
8662;DHT22;29684;47.722;9.388;2024-03-25T01:54:18;3.60;99.90
8662;DHT22;29684;47.722;9.388;2024-03-25T01:57:03;3.60;99.90
8662;DHT22;29684;47.722;9.388;2024-03-25T01:59:48;3.60;99.90
8662;DHT22;29684;47.722;9.388;2024-03-25T02:02:32;3.60;99.90
8662;DHT22;29684;47.722;9.388;2024-03-25T02:05:19;3.70;99.90
8662;DHT22;29684;47.722;9.388;2024-03-25T02:08:06;3.70;99.90
8662;DHT22;29684;47.722;9.388;2024-03-25T02:10:51;3.70;99.90
8662;DHT22;29684;47.722;9.388;2024-03-25T02:13:35;3.60;99.90
8662;DHT22;29684;47.722;9.388;2024-03-25T02:16:20;3.70;99.90
8662;DHT22;29684;47.722;9.388;2024-03-25T02:19:04;3.60;99.90
8662;DHT22;29684;47.722;9.388;2024-03-25T02:21:48;3.60;99.90
8662;DHT22;29684;47.722;9.388;2024-03-25T02:24:33;3.70;99.90
8662;DHT22;29684;47.722;9.388;2024-03-25T02:27:18;3.70;99.90
8662;DHT22;29684;47.722;9.388;2024-03-25T02:30:10;3.60;99.90
8662;DHT22;29684;47.722;9.388;2024-03-25T02:32:56;3.60;99.90
8662;DHT22;29684;47.722;9.388;2024-03-25T02:35:42;3.60;99.90
8662;DHT22;29684;47.722;9.388;2024-03-25T02:38:27;3.50;99.90
8662;DHT22;29684;47.722;9.388;2024-03-25T02:41:12;3.60;99.90
8662;DHT22;29684;47.722;9.388;2024-03-25T02:43:57;3.60;99.90
8662;DHT22;29684;47.722;9.388;2024-03-25T02:46:41;3.60;99.90
8662;DHT22;29684;47.722;9.388;2024-03-25T02:49:26;3.60;99.90
8662;DHT22;29684;47.722;9.388;2024-03-25T02:52:10;3.60;99.90
8662;DHT22;29684;47.722;9.388;2024-03-25T02:54:55;3.60;99.90
8662;DHT22;29684;47.722;9.388;2024-03-25T02:57:39;3.60;99.90
8662;DHT22;29684;47.722;9.388;2024-03-25T03:00:23;3.70;99.90
8662;DHT22;29684;47.722;9.388;2024-03-25T03:03:07;3.70;99.90
8662;DHT22;29684;47.722;9.388;2024-03-25T03:05:51;3.70;99.90
8662;DHT22;29684;47.722;9.388;2024-03-25T03:08:36;3.80;99.90
8662;DHT22;29684;47.722;9.388;2024-03-25T03:11:20;3.80;99.90
8662;DHT22;29684;47.722;9.388;2024-03-25T03:14:04;3.90;99.90
8662;DHT22;29684;47.722;9.388;2024-03-25T03:16:48;4.00;99.90
8662;DHT22;29684;47.722;9.388;2024-03-25T03:19:33;4.10;99.90
8662;DHT22;29684;47.722;9.388;2024-03-25T03:22:17;4.00;99.90
8662;DHT22;29684;47.722;9.388;2024-03-25T03:25:01;3.90;99.90
8662;DHT22;29684;47.722;9.388;2024-03-25T03:27:46;3.80;99.90
8662;DHT22;29684;47.722;9.388;2024-03-25T03:30:30;3.70;99.90
8662;DHT22;29684;47.722;9.388;2024-03-25T03:33:14;3.70;99.90
8662;DHT22;29684;47.722;9.388;2024-03-25T03:35:58;3.70;99.90
8662;DHT22;29684;47.722;9.388;2024-03-25T03:38:42;3.70;99.90
8662;DHT22;29684;47.722;9.388;2024-03-25T03:41:26;3.70;99.90
8662;DHT22;29684;47.722;9.388;2024-03-25T03:44:10;3.80;99.90
8662;DHT22;29684;47.722;9.388;2024-03-25T03:46:56;3.80;99.90
8662;DHT22;29684;47.722;9.388;2024-03-25T03:49:40;3.80;99.90
8662;DHT22;29684;47.722;9.388;2024-03-25T03:52:25;3.90;99.90
8662;DHT22;29684;47.722;9.388;2024-03-25T03:55:09;3.80;99.90
8662;DHT22;29684;47.722;9.388;2024-03-25T03:57:54;3.70;99.90
8662;DHT22;29684;47.722;9.388;2024-03-25T04:00:38;3.70;99.90
8662;DHT22;29684;47.722;9.388;2024-03-25T04:03:22;3.60;99.90
8662;DHT22;29684;47.722;9.388;2024-03-25T04:06:10;3.60;99.90
8662;DHT22;29684;47.722;9.388;2024-03-25T04:08:55;3.60;99.90
8662;DHT22;29684;47.722;9.388;2024-03-25T04:11:39;3.50;99.90
8662;DHT22;29684;47.722;9.388;2024-03-25T04:14:23;3.50;99.90
8662;DHT22;29684;47.722;9.388;2024-03-25T04:17:07;3.50;99.90
8662;DHT22;29684;47.722;9.388;2024-03-25T04:19:51;3.90;99.90
8662;DHT22;29684;47.722;9.388;2024-03-25T04:22:36;3.40;99.90
8662;DHT22;29684;47.722;9.388;2024-03-25T04:25:21;3.50;99.90
8662;DHT22;29684;47.722;9.388;2024-03-25T04:28:06;3.50;99.90
8662;DHT22;29684;47.722;9.388;2024-03-25T04:30:51;3.50;99.90
8662;DHT22;29684;47.722;9.388;2024-03-25T04:33:36;3.50;99.90
8662;DHT22;29684;47.722;9.388;2024-03-25T04:36:20;3.50;99.90
8662;DHT22;29684;47.722;9.388;2024-03-25T04:39:04;3.60;99.90
8662;DHT22;29684;47.722;9.388;2024-03-25T04:41:52;3.60;99.90
8662;DHT22;29684;47.722;9.388;2024-03-25T04:44:36;3.60;99.90
8662;DHT22;29684;47.722;9.388;2024-03-25T04:47:20;3.70;99.90
8662;DHT22;29684;47.722;9.388;2024-03-25T04:50:05;3.70;99.90
8662;DHT22;29684;47.722;9.388;2024-03-25T04:52:50;3.70;99.90
8662;DHT22;29684;47.722;9.388;2024-03-25T04:55:34;3.60;99.90
8662;DHT22;29684;47.722;9.388;2024-03-25T04:58:18;3.50;99.90
8662;DHT22;29684;47.722;9.388;2024-03-25T05:01:02;3.60;99.90
8662;DHT22;29684;47.722;9.388;2024-03-25T05:03:46;3.60;99.90
8662;DHT22;29684;47.722;9.388;2024-03-25T05:06:30;3.70;99.90
8662;DHT22;29684;47.722;9.388;2024-03-25T05:09:14;3.60;99.90
8662;DHT22;29684;47.722;9.388;2024-03-25T05:12:00;3.70;99.90
8662;DHT22;29684;47.722;9.388;2024-03-25T05:14:44;3.70;99.90
8662;DHT22;29684;47.722;9.388;2024-03-25T05:17:28;3.80;99.90
8662;DHT22;29684;47.722;9.388;2024-03-25T05:20:12;3.90;99.90
8662;DHT22;29684;47.722;9.388;2024-03-25T05:22:56;3.80;99.90
8662;DHT22;29684;47.722;9.388;2024-03-25T05:25:41;3.90;99.90
8662;DHT22;29684;47.722;9.388;2024-03-25T05:28:25;3.80;99.90
8662;DHT22;29684;47.722;9.388;2024-03-25T05:31:09;3.90;99.90
8662;DHT22;29684;47.722;9.388;2024-03-25T05:33:54;4.00;99.90
8662;DHT22;29684;47.722;9.388;2024-03-25T05:36:38;5.50;99.90
8662;DHT22;29684;47.722;9.388;2024-03-25T05:39:22;4.10;99.90
8662;DHT22;29684;47.722;9.388;2024-03-25T05:42:06;4.40;99.90
8662;DHT22;29684;47.722;9.388;2024-03-25T05:44:50;4.50;99.90
8662;DHT22;29684;47.722;9.388;2024-03-25T05:47:34;4.30;99.90
8662;DHT22;29684;47.722;9.388;2024-03-25T05:50:18;4.30;99.90
8662;DHT22;29684;47.722;9.388;2024-03-25T05:53:03;4.20;99.90
8662;DHT22;29684;47.722;9.388;2024-03-25T05:55:47;4.40;99.90
8662;DHT22;29684;47.722;9.388;2024-03-25T05:58:31;4.40;99.90
8662;DHT22;29684;47.722;9.388;2024-03-25T06:01:15;4.30;99.90
8662;DHT22;29684;47.722;9.388;2024-03-25T06:03:59;4.40;99.90
8662;DHT22;29684;47.722;9.388;2024-03-25T06:06:43;4.30;99.90
8662;DHT22;29684;47.722;9.388;2024-03-25T06:09:28;4.30;99.90
8662;DHT22;29684;47.722;9.388;2024-03-25T06:12:12;4.30;99.90
8662;DHT22;29684;47.722;9.388;2024-03-25T06:14:57;4.40;99.90
8662;DHT22;29684;47.722;9.388;2024-03-25T06:17:41;4.40;99.90
8662;DHT22;29684;47.722;9.388;2024-03-25T06:20:25;4.50;99.90
8662;DHT22;29684;47.722;9.388;2024-03-25T06:23:09;4.40;99.90
8662;DHT22;29684;47.722;9.388;2024-03-25T06:25:54;4.60;99.90
8662;DHT22;29684;47.722;9.388;2024-03-25T06:28:39;4.70;99.90
8662;DHT22;29684;47.722;9.388;2024-03-25T06:31:23;4.70;99.90
8662;DHT22;29684;47.722;9.388;2024-03-25T06:34:26;4.70;99.90
8662;DHT22;29684;47.722;9.388;2024-03-25T06:37:10;4.70;99.90
8662;DHT22;29684;47.722;9.388;2024-03-25T06:39:54;4.90;99.90
8662;DHT22;29684;47.722;9.388;2024-03-25T06:42:38;5.10;99.90
8662;DHT22;29684;47.722;9.388;2024-03-25T06:45:22;5.00;99.90
8662;DHT22;29684;47.722;9.388;2024-03-25T06:48:07;4.80;99.90
8662;DHT22;29684;47.722;9.388;2024-03-25T06:50:55;4.70;99.90
8662;DHT22;29684;47.722;9.388;2024-03-25T06:53:40;4.80;99.90
8662;DHT22;29684;47.722;9.388;2024-03-25T06:56:24;4.70;99.90
8662;DHT22;29684;47.722;9.388;2024-03-25T06:59:09;4.80;99.90
8662;DHT22;29684;47.722;9.388;2024-03-25T07:01:53;5.00;99.90
8662;DHT22;29684;47.722;9.388;2024-03-25T07:04:37;5.00;99.90
8662;DHT22;29684;47.722;9.388;2024-03-25T07:07:21;5.10;99.90
8662;DHT22;29684;47.722;9.388;2024-03-25T07:10:06;5.20;99.90
8662;DHT22;29684;47.722;9.388;2024-03-25T07:12:50;5.30;99.90
8662;DHT22;29684;47.722;9.388;2024-03-25T07:15:34;5.30;99.90
8662;DHT22;29684;47.722;9.388;2024-03-25T07:18:19;5.20;99.90
8662;DHT22;29684;47.722;9.388;2024-03-25T07:21:03;5.40;99.90
8662;DHT22;29684;47.722;9.388;2024-03-25T07:23:47;5.40;99.90
8662;DHT22;29684;47.722;9.388;2024-03-25T07:26:32;5.80;99.90
8662;DHT22;29684;47.722;9.388;2024-03-25T07:29:16;5.60;99.90
8662;DHT22;29684;47.722;9.388;2024-03-25T07:32:00;5.70;99.90
8662;DHT22;29684;47.722;9.388;2024-03-25T07:34:44;5.70;99.90
8662;DHT22;29684;47.722;9.388;2024-03-25T07:37:30;5.70;99.90
8662;DHT22;29684;47.722;9.388;2024-03-25T07:40:14;6.10;99.90
8662;DHT22;29684;47.722;9.388;2024-03-25T07:42:58;6.20;99.90
8662;DHT22;29684;47.722;9.388;2024-03-25T07:45:42;6.00;99.90
8662;DHT22;29684;47.722;9.388;2024-03-25T07:48:27;5.90;99.90
8662;DHT22;29684;47.722;9.388;2024-03-25T07:51:11;5.70;99.90
8662;DHT22;29684;47.722;9.388;2024-03-25T07:53:55;5.60;99.90
8662;DHT22;29684;47.722;9.388;2024-03-25T07:56:39;5.80;99.90
8662;DHT22;29684;47.722;9.388;2024-03-25T07:59:23;5.90;99.90
8662;DHT22;29684;47.722;9.388;2024-03-25T08:02:08;5.90;99.90
8662;DHT22;29684;47.722;9.388;2024-03-25T08:04:52;5.90;99.90
8662;DHT22;29684;47.722;9.388;2024-03-25T08:07:36;5.80;99.90
8662;DHT22;29684;47.722;9.388;2024-03-25T08:10:20;5.80;99.90
8662;DHT22;29684;47.722;9.388;2024-03-25T08:13:04;5.80;99.90
8662;DHT22;29684;47.722;9.388;2024-03-25T08:15:48;6.10;99.90
8662;DHT22;29684;47.722;9.388;2024-03-25T08:18:33;6.30;99.90
8662;DHT22;29684;47.722;9.388;2024-03-25T08:21:18;6.30;99.90
8662;DHT22;29684;47.722;9.388;2024-03-25T08:24:02;6.10;99.90
8662;DHT22;29684;47.722;9.388;2024-03-25T08:26:46;6.10;99.90
8662;DHT22;29684;47.722;9.388;2024-03-25T08:29:31;6.30;99.90
8662;DHT22;29684;47.722;9.388;2024-03-25T08:32:15;6.60;99.90
8662;DHT22;29684;47.722;9.388;2024-03-25T08:34:59;6.50;99.90
8662;DHT22;29684;47.722;9.388;2024-03-25T08:37:43;6.40;99.90
8662;DHT22;29684;47.722;9.388;2024-03-25T08:40:27;6.50;99.90
8662;DHT22;29684;47.722;9.388;2024-03-25T08:43:11;6.90;99.90
8662;DHT22;29684;47.722;9.388;2024-03-25T08:45:56;6.70;99.90
8662;DHT22;29684;47.722;9.388;2024-03-25T08:48:41;6.60;99.90
8662;DHT22;29684;47.722;9.388;2024-03-25T08:51:25;6.70;99.90
8662;DHT22;29684;47.722;9.388;2024-03-25T08:54:09;6.70;99.90
8662;DHT22;29684;47.722;9.388;2024-03-25T08:56:53;6.70;99.90
8662;DHT22;29684;47.722;9.388;2024-03-25T08:59:37;7.40;99.90
8662;DHT22;29684;47.722;9.388;2024-03-25T09:02:21;7.30;99.90
8662;DHT22;29684;47.722;9.388;2024-03-25T09:05:06;7.50;99.90
8662;DHT22;29684;47.722;9.388;2024-03-25T09:07:51;7.60;99.90
8662;DHT22;29684;47.722;9.388;2024-03-25T09:10:36;8.10;99.90
8662;DHT22;29684;47.722;9.388;2024-03-25T09:13:39;8.40;99.90
8662;DHT22;29684;47.722;9.388;2024-03-25T09:16:23;8.70;99.90
8662;DHT22;29684;47.722;9.388;2024-03-25T09:19:07;9.10;99.90
8662;DHT22;29684;47.722;9.388;2024-03-25T09:21:51;9.20;99.90
8662;DHT22;29684;47.722;9.388;2024-03-25T09:24:36;9.30;99.90
8662;DHT22;29684;47.722;9.388;2024-03-25T09:27:20;9.00;99.90
8662;DHT22;29684;47.722;9.388;2024-03-25T09:30:05;8.80;99.90
8662;DHT22;29684;47.722;9.388;2024-03-25T09:32:49;8.70;99.90
8662;DHT22;29684;47.722;9.388;2024-03-25T09:35:34;8.90;99.90
8662;DHT22;29684;47.722;9.388;2024-03-25T09:38:18;9.00;99.90
8662;DHT22;29684;47.722;9.388;2024-03-25T09:41:02;9.30;99.90
8662;DHT22;29684;47.722;9.388;2024-03-25T09:43:54;9.50;99.90
8662;DHT22;29684;47.722;9.388;2024-03-25T09:46:41;9.70;99.90
8662;DHT22;29684;47.722;9.388;2024-03-25T09:49:25;9.70;99.90
8662;DHT22;29684;47.722;9.388;2024-03-25T09:52:11;9.90;99.90
8662;DHT22;29684;47.722;9.388;2024-03-25T09:54:55;10.10;99.90
8662;DHT22;29684;47.722;9.388;2024-03-25T09:57:40;10.30;99.90
8662;DHT22;29684;47.722;9.388;2024-03-25T10:00:26;10.50;99.90
8662;DHT22;29684;47.722;9.388;2024-03-25T10:03:10;10.60;99.90
8662;DHT22;29684;47.722;9.388;2024-03-25T10:05:54;10.80;99.90
8662;DHT22;29684;47.722;9.388;2024-03-25T10:08:38;10.20;99.90
8662;DHT22;29684;47.722;9.388;2024-03-25T10:11:23;10.00;99.90
8662;DHT22;29684;47.722;9.388;2024-03-25T10:14:07;10.40;99.90
8662;DHT22;29684;47.722;9.388;2024-03-25T10:16:53;10.90;99.90
8662;DHT22;29684;47.722;9.388;2024-03-25T10:19:37;10.80;99.90
8662;DHT22;29684;47.722;9.388;2024-03-25T10:22:22;10.80;99.90
8662;DHT22;29684;47.722;9.388;2024-03-25T10:25:06;10.70;99.90
8662;DHT22;29684;47.722;9.388;2024-03-25T10:27:58;11.00;99.90
8662;DHT22;29684;47.722;9.388;2024-03-25T10:30:42;11.20;99.90
8662;DHT22;29684;47.722;9.388;2024-03-25T10:33:28;11.20;99.90
8662;DHT22;29684;47.722;9.388;2024-03-25T10:36:13;11.10;99.90
8662;DHT22;29684;47.722;9.388;2024-03-25T10:39:01;11.30;99.90
8662;DHT22;29684;47.722;9.388;2024-03-25T10:41:57;11.40;99.90
8662;DHT22;29684;47.722;9.388;2024-03-25T10:44:42;11.40;99.90
8662;DHT22;29684;47.722;9.388;2024-03-25T10:47:28;11.60;99.90
8662;DHT22;29684;47.722;9.388;2024-03-25T10:50:16;11.70;99.90
8662;DHT22;29684;47.722;9.388;2024-03-25T10:53:04;11.80;99.90
8662;DHT22;29684;47.722;9.388;2024-03-25T10:55:52;11.80;99.90
8662;DHT22;29684;47.722;9.388;2024-03-25T10:58:38;11.60;99.90
8662;DHT22;29684;47.722;9.388;2024-03-25T11:01:24;11.70;99.90
8662;DHT22;29684;47.722;9.388;2024-03-25T11:04:09;11.60;99.90
8662;DHT22;29684;47.722;9.388;2024-03-25T11:06:53;11.10;99.90
8662;DHT22;29684;47.722;9.388;2024-03-25T11:09:38;11.40;99.90
8662;DHT22;29684;47.722;9.388;2024-03-25T11:12:22;11.50;99.90
8662;DHT22;29684;47.722;9.388;2024-03-25T11:15:07;11.40;99.90
8662;DHT22;29684;47.722;9.388;2024-03-25T11:17:51;11.50;99.90
8662;DHT22;29684;47.722;9.388;2024-03-25T11:20:35;11.90;99.90
8662;DHT22;29684;47.722;9.388;2024-03-25T11:23:19;12.00;99.90
8662;DHT22;29684;47.722;9.388;2024-03-25T11:26:03;11.90;99.90
8662;DHT22;29684;47.722;9.388;2024-03-25T11:28:48;12.00;99.90
8662;DHT22;29684;47.722;9.388;2024-03-25T11:31:33;12.30;99.90
8662;DHT22;29684;47.722;9.388;2024-03-25T11:34:22;12.70;99.90
8662;DHT22;29684;47.722;9.388;2024-03-25T11:37:06;13.00;99.90
8662;DHT22;29684;47.722;9.388;2024-03-25T11:40:01;12.80;99.90
8662;DHT22;29684;47.722;9.388;2024-03-25T11:42:47;12.80;99.90
8662;DHT22;29684;47.722;9.388;2024-03-25T11:45:32;13.00;99.90
8662;DHT22;29684;47.722;9.388;2024-03-25T11:48:16;12.70;99.90
8662;DHT22;29684;47.722;9.388;2024-03-25T11:51:00;12.90;99.90
8662;DHT22;29684;47.722;9.388;2024-03-25T11:53:47;12.80;99.90
8662;DHT22;29684;47.722;9.388;2024-03-25T11:56:32;13.10;99.90
8662;DHT22;29684;47.722;9.388;2024-03-25T11:59:16;13.40;99.90
8662;DHT22;29684;47.722;9.388;2024-03-25T12:02:00;13.20;99.90
8662;DHT22;29684;47.722;9.388;2024-03-25T12:04:45;12.90;99.90
8662;DHT22;29684;47.722;9.388;2024-03-25T12:07:29;13.20;98.20
8662;DHT22;29684;47.722;9.388;2024-03-25T12:10:14;13.20;98.70
8662;DHT22;29684;47.722;9.388;2024-03-25T12:13:17;13.10;98.60
8662;DHT22;29684;47.722;9.388;2024-03-25T12:16:03;13.50;98.90
8662;DHT22;29684;47.722;9.388;2024-03-25T12:18:47;13.70;98.10
8662;DHT22;29684;47.722;9.388;2024-03-25T12:21:32;13.40;98.30
8662;DHT22;29684;47.722;9.388;2024-03-25T12:24:16;13.70;97.90
8662;DHT22;29684;47.722;9.388;2024-03-25T12:27:01;13.70;96.20
8662;DHT22;29684;47.722;9.388;2024-03-25T12:30:00;13.60;96.20
8662;DHT22;29684;47.722;9.388;2024-03-25T12:32:45;14.10;96.20
8662;DHT22;29684;47.722;9.388;2024-03-25T12:35:35;14.00;95.90
8662;DHT22;29684;47.722;9.388;2024-03-25T12:38:30;14.40;96.10
8662;DHT22;29684;47.722;9.388;2024-03-25T12:41:17;14.60;95.80
8662;DHT22;29684;47.722;9.388;2024-03-25T12:44:05;14.70;95.40
8662;DHT22;29684;47.722;9.388;2024-03-25T12:46:50;14.80;95.00
8662;DHT22;29684;47.722;9.388;2024-03-25T12:49:34;14.80;94.00
8662;DHT22;29684;47.722;9.388;2024-03-25T12:52:19;14.90;94.50
8662;DHT22;29684;47.722;9.388;2024-03-25T12:55:03;14.90;93.60
8662;DHT22;29684;47.722;9.388;2024-03-25T12:57:48;14.80;94.60
8662;DHT22;29684;47.722;9.388;2024-03-25T13:00:32;15.30;94.50
8662;DHT22;29684;47.722;9.388;2024-03-25T13:03:16;15.50;93.80
8662;DHT22;29684;47.722;9.388;2024-03-25T13:06:02;15.50;93.10
8662;DHT22;29684;47.722;9.388;2024-03-25T13:08:47;15.90;92.60
8662;DHT22;29684;47.722;9.388;2024-03-25T13:11:31;16.40;91.90
8662;DHT22;29684;47.722;9.388;2024-03-25T13:14:15;17.10;91.00
8662;DHT22;29684;47.722;9.388;2024-03-25T13:17:00;17.10;90.30
8662;DHT22;29684;47.722;9.388;2024-03-25T13:19:44;17.10;88.80
8662;DHT22;29684;47.722;9.388;2024-03-25T13:22:28;17.90;90.00
8662;DHT22;29684;47.722;9.388;2024-03-25T13:25:15;18.10;87.70
8662;DHT22;29684;47.722;9.388;2024-03-25T13:28:00;19.10;86.10
8662;DHT22;29684;47.722;9.388;2024-03-25T13:30:45;20.20;83.30
8662;DHT22;29684;47.722;9.388;2024-03-25T13:33:29;20.50;81.80
8662;DHT22;29684;47.722;9.388;2024-03-25T13:36:13;20.10;79.20
8662;DHT22;29684;47.722;9.388;2024-03-25T13:38:57;21.10;76.60
8662;DHT22;29684;47.722;9.388;2024-03-25T13:41:41;21.90;74.50
8662;DHT22;29684;47.722;9.388;2024-03-25T13:44:25;22.10;72.10
8662;DHT22;29684;47.722;9.388;2024-03-25T13:47:09;22.30;70.00
8662;DHT22;29684;47.722;9.388;2024-03-25T13:50:06;22.60;68.40
8662;DHT22;29684;47.722;9.388;2024-03-25T13:52:55;23.00;65.80
8662;DHT22;29684;47.722;9.388;2024-03-25T13:55:39;23.00;64.90
8662;DHT22;29684;47.722;9.388;2024-03-25T13:58:24;21.90;65.70
8662;DHT22;29684;47.722;9.388;2024-03-25T14:01:08;22.50;63.90
8662;DHT22;29684;47.722;9.388;2024-03-25T14:03:53;23.00;63.50
8662;DHT22;29684;47.722;9.388;2024-03-25T14:06:38;22.90;61.90
8662;DHT22;29684;47.722;9.388;2024-03-25T14:09:26;23.50;58.60
8662;DHT22;29684;47.722;9.388;2024-03-25T14:12:10;24.40;56.90
8662;DHT22;29684;47.722;9.388;2024-03-25T14:14:54;24.40;54.80
8662;DHT22;29684;47.722;9.388;2024-03-25T14:17:38;23.80;55.60
8662;DHT22;29684;47.722;9.388;2024-03-25T14:20:22;23.60;55.40
8662;DHT22;29684;47.722;9.388;2024-03-25T14:23:06;24.00;54.10
8662;DHT22;29684;47.722;9.388;2024-03-25T14:25:51;23.30;54.50
8662;DHT22;29684;47.722;9.388;2024-03-25T14:28:35;23.60;52.80
8662;DHT22;29684;47.722;9.388;2024-03-25T14:31:21;22.60;52.30
8662;DHT22;29684;47.722;9.388;2024-03-25T14:34:05;23.20;53.30
8662;DHT22;29684;47.722;9.388;2024-03-25T14:36:49;23.70;52.10
8662;DHT22;29684;47.722;9.388;2024-03-25T14:39:33;24.50;51.10
8662;DHT22;29684;47.722;9.388;2024-03-25T14:42:17;24.40;50.90
8662;DHT22;29684;47.722;9.388;2024-03-25T14:45:01;25.10;49.80
8662;DHT22;29684;47.722;9.388;2024-03-25T14:47:46;24.70;49.90
8662;DHT22;29684;47.722;9.388;2024-03-25T14:50:30;24.70;49.60
8662;DHT22;29684;47.722;9.388;2024-03-25T14:53:14;25.30;49.20
8662;DHT22;29684;47.722;9.388;2024-03-25T14:55:58;24.60;49.30
8662;DHT22;29684;47.722;9.388;2024-03-25T14:58:42;24.00;49.30
8662;DHT22;29684;47.722;9.388;2024-03-25T15:01:26;24.70;49.50
8662;DHT22;29684;47.722;9.388;2024-03-25T15:04:11;24.60;50.00
8662;DHT22;29684;47.722;9.388;2024-03-25T15:06:55;23.10;49.10
8662;DHT22;29684;47.722;9.388;2024-03-25T15:09:40;23.90;49.50
8662;DHT22;29684;47.722;9.388;2024-03-25T15:12:24;24.50;47.80
8662;DHT22;29684;47.722;9.388;2024-03-25T15:15:10;23.70;48.00
8662;DHT22;29684;47.722;9.388;2024-03-25T15:17:55;24.90;47.40
8662;DHT22;29684;47.722;9.388;2024-03-25T15:20:39;24.20;47.50
8662;DHT22;29684;47.722;9.388;2024-03-25T15:23:23;25.40;46.90
8662;DHT22;29684;47.722;9.388;2024-03-25T15:26:07;25.70;46.50
8662;DHT22;29684;47.722;9.388;2024-03-25T15:28:51;24.10;46.10
8662;DHT22;29684;47.722;9.388;2024-03-25T15:31:36;23.70;46.50
8662;DHT22;29684;47.722;9.388;2024-03-25T15:34:20;22.80;46.80
8662;DHT22;29684;47.722;9.388;2024-03-25T15:37:05;23.40;47.00
8662;DHT22;29684;47.722;9.388;2024-03-25T15:39:49;22.70;45.90
8662;DHT22;29684;47.722;9.388;2024-03-25T15:42:34;23.00;46.90
8662;DHT22;29684;47.722;9.388;2024-03-25T15:45:18;24.00;46.10
8662;DHT22;29684;47.722;9.388;2024-03-25T15:48:02;24.80;45.90
8662;DHT22;29684;47.722;9.388;2024-03-25T15:50:48;25.30;45.20
8662;DHT22;29684;47.722;9.388;2024-03-25T15:53:32;24.80;45.70
8662;DHT22;29684;47.722;9.388;2024-03-25T15:56:17;26.10;44.80
8662;DHT22;29684;47.722;9.388;2024-03-25T15:59:01;25.30;45.10
8662;DHT22;29684;47.722;9.388;2024-03-25T16:01:45;24.70;45.30
8662;DHT22;29684;47.722;9.388;2024-03-25T16:04:29;25.40;43.80
8662;DHT22;29684;47.722;9.388;2024-03-25T16:07:14;25.40;44.10
8662;DHT22;29684;47.722;9.388;2024-03-25T16:09:58;23.50;43.90
8662;DHT22;29684;47.722;9.388;2024-03-25T16:12:44;22.20;45.10
8662;DHT22;29684;47.722;9.388;2024-03-25T16:15:30;22.10;45.40
8662;DHT22;29684;47.722;9.388;2024-03-25T16:18:14;23.10;45.30
8662;DHT22;29684;47.722;9.388;2024-03-25T16:20:58;22.50;45.00
8662;DHT22;29684;47.722;9.388;2024-03-25T16:23:43;21.60;44.50
8662;DHT22;29684;47.722;9.388;2024-03-25T16:26:27;21.30;45.40
8662;DHT22;29684;47.722;9.388;2024-03-25T16:29:12;21.60;46.20
8662;DHT22;29684;47.722;9.388;2024-03-25T16:31:56;22.60;45.80
8662;DHT22;29684;47.722;9.388;2024-03-25T16:34:40;22.30;45.60
8662;DHT22;29684;47.722;9.388;2024-03-25T16:37:24;21.60;45.20
8662;DHT22;29684;47.722;9.388;2024-03-25T16:40:09;20.40;45.00
8662;DHT22;29684;47.722;9.388;2024-03-25T16:42:56;20.00;46.10
8662;DHT22;29684;47.722;9.388;2024-03-25T16:45:41;20.60;46.50
8662;DHT22;29684;47.722;9.388;2024-03-25T16:48:26;20.60;45.60
8662;DHT22;29684;47.722;9.388;2024-03-25T16:51:10;21.50;44.60
8662;DHT22;29684;47.722;9.388;2024-03-25T16:53:55;20.60;45.30
8662;DHT22;29684;47.722;9.388;2024-03-25T16:56:39;19.30;46.20
8662;DHT22;29684;47.722;9.388;2024-03-25T16:59:23;18.40;46.70
8662;DHT22;29684;47.722;9.388;2024-03-25T17:02:07;17.30;46.60
8662;DHT22;29684;47.722;9.388;2024-03-25T17:04:51;16.80;47.40
8662;DHT22;29684;47.722;9.388;2024-03-25T17:07:35;16.30;47.80
8662;DHT22;29684;47.722;9.388;2024-03-25T17:10:19;15.50;49.50
8662;DHT22;29684;47.722;9.388;2024-03-25T17:13:04;15.10;49.20
8662;DHT22;29684;47.722;9.388;2024-03-25T17:15:48;14.50;50.10
8662;DHT22;29684;47.722;9.388;2024-03-25T17:18:32;14.40;50.30
8662;DHT22;29684;47.722;9.388;2024-03-25T17:21:16;14.00;50.80
8662;DHT22;29684;47.722;9.388;2024-03-25T17:24:00;13.60;51.40
8662;DHT22;29684;47.722;9.388;2024-03-25T17:26:44;13.40;52.10
8662;DHT22;29684;47.722;9.388;2024-03-25T17:29:29;13.00;52.40
8662;DHT22;29684;47.722;9.388;2024-03-25T17:32:13;12.60;53.00
8662;DHT22;29684;47.722;9.388;2024-03-25T17:34:57;12.40;53.50
8662;DHT22;29684;47.722;9.388;2024-03-25T17:37:41;12.30;53.80
8662;DHT22;29684;47.722;9.388;2024-03-25T17:40:26;12.10;54.50
8662;DHT22;29684;47.722;9.388;2024-03-25T17:43:11;11.90;54.50
8662;DHT22;29684;47.722;9.388;2024-03-25T17:45:56;11.70;55.00
8662;DHT22;29684;47.722;9.388;2024-03-25T17:48:40;11.60;55.20